sensor_id;sensor_type;location;lat;lon;timestamp;pressure;altitude;pressure_sealevel;temperature;humidity
8941;BME280;4505;43.406;23.226;2023-02-17T00:01:23;100746.19;;;2.92;100.00
8941;BME280;4505;43.406;23.226;2023-02-17T00:03:51;100753.06;;;2.85;100.00
8941;BME280;4505;43.406;23.226;2023-02-17T00:06:18;100749.13;;;2.89;100.00
8941;BME280;4505;43.406;23.226;2023-02-17T00:08:45;100751.44;;;2.92;100.00
8941;BME280;4505;43.406;23.226;2023-02-17T00:11:12;100750.63;;;2.92;100.00
8941;BME280;4505;43.406;23.226;2023-02-17T00:13:38;100744.59;;;3.00;100.00
8941;BME280;4505;43.406;23.226;2023-02-17T00:16:07;100748.00;;;2.92;100.00
8941;BME280;4505;43.406;23.226;2023-02-17T00:18:35;100747.53;;;2.97;100.00
8941;BME280;4505;43.406;23.226;2023-02-17T00:21:09;100747.84;;;2.93;100.00
8941;BME280;4505;43.406;23.226;2023-02-17T00:23:36;100737.09;;;3.13;100.00
8941;BME280;4505;43.406;23.226;2023-02-17T00:26:03;100745.03;;;2.87;100.00
8941;BME280;4505;43.406;23.226;2023-02-17T00:28:29;100738.59;;;2.81;100.00
8941;BME280;4505;43.406;23.226;2023-02-17T00:30:56;100736.00;;;2.81;100.00
8941;BME280;4505;43.406;23.226;2023-02-17T00:33:23;100735.69;;;2.51;100.00
8941;BME280;4505;43.406;23.226;2023-02-17T00:35:50;100740.75;;;2.19;100.00
8941;BME280;4505;43.406;23.226;2023-02-17T00:38:17;100731.41;;;1.91;100.00
8941;BME280;4505;43.406;23.226;2023-02-17T00:40:44;100726.47;;;1.88;100.00
8941;BME280;4505;43.406;23.226;2023-02-17T00:43:10;100728.22;;;1.62;100.00
8941;BME280;4505;43.406;23.226;2023-02-17T00:45:38;100721.47;;;1.59;100.00
8941;BME280;4505;43.406;23.226;2023-02-17T00:48:04;100709.91;;;1.62;100.00
8941;BME280;4505;43.406;23.226;2023-02-17T00:50:31;100708.19;;;1.53;100.00
8941;BME280;4505;43.406;23.226;2023-02-17T00:52:59;100710.38;;;1.83;100.00
8941;BME280;4505;43.406;23.226;2023-02-17T00:55:25;100706.78;;;1.84;100.00
8941;BME280;4505;43.406;23.226;2023-02-17T00:57:52;100699.81;;;1.92;100.00
8941;BME280;4505;43.406;23.226;2023-02-17T01:00:18;100693.38;;;1.87;100.00
8941;BME280;4505;43.406;23.226;2023-02-17T01:02:45;100689.84;;;1.70;100.00
8941;BME280;4505;43.406;23.226;2023-02-17T01:05:12;100694.25;;;1.70;100.00
8941;BME280;4505;43.406;23.226;2023-02-17T01:07:38;100695.09;;;1.96;100.00
8941;BME280;4505;43.406;23.226;2023-02-17T01:10:19;100689.28;;;1.84;100.00
8941;BME280;4505;43.406;23.226;2023-02-17T01:12:46;100694.56;;;1.92;100.00
8941;BME280;4505;43.406;23.226;2023-02-17T01:15:13;100694.72;;;1.65;100.00
8941;BME280;4505;43.406;23.226;2023-02-17T01:17:39;100702.66;;;1.56;100.00
8941;BME280;4505;43.406;23.226;2023-02-17T01:20:07;100696.22;;;1.50;100.00
8941;BME280;4505;43.406;23.226;2023-02-17T01:22:34;100687.59;;;1.58;100.00
8941;BME280;4505;43.406;23.226;2023-02-17T01:25:00;100682.66;;;1.55;100.00
8941;BME280;4505;43.406;23.226;2023-02-17T01:27:28;100688.84;;;1.28;100.00
8941;BME280;4505;43.406;23.226;2023-02-17T01:29:55;100696.75;;;1.18;100.00
8941;BME280;4505;43.406;23.226;2023-02-17T01:32:21;100681.28;;;1.25;100.00
8941;BME280;4505;43.406;23.226;2023-02-17T01:34:48;100689.78;;;1.09;100.00
8941;BME280;4505;43.406;23.226;2023-02-17T01:37:15;100697.47;;;0.93;100.00
8941;BME280;4505;43.406;23.226;2023-02-17T01:39:41;100688.28;;;0.89;100.00
8941;BME280;4505;43.406;23.226;2023-02-17T01:42:11;100690.69;;;1.00;100.00
8941;BME280;4505;43.406;23.226;2023-02-17T01:47:22;100675.59;;;1.29;100.00
8941;BME280;4505;43.406;23.226;2023-02-17T01:49:48;100688.16;;;1.08;100.00
8941;BME280;4505;43.406;23.226;2023-02-17T01:52:16;100694.44;;;1.15;100.00
8941;BME280;4505;43.406;23.226;2023-02-17T01:54:45;100685.69;;;1.42;100.00
8941;BME280;4505;43.406;23.226;2023-02-17T01:57:14;100677.75;;;1.16;100.00
8941;BME280;4505;43.406;23.226;2023-02-17T01:59:42;100659.97;;;1.37;100.00
8941;BME280;4505;43.406;23.226;2023-02-17T02:02:09;100680.91;;;1.02;100.00
8941;BME280;4505;43.406;23.226;2023-02-17T02:04:38;100678.53;;;1.26;100.00
8941;BME280;4505;43.406;23.226;2023-02-17T02:07:09;100671.25;;;1.56;100.00
8941;BME280;4505;43.406;23.226;2023-02-17T02:09:37;100666.78;;;1.74;100.00
8941;BME280;4505;43.406;23.226;2023-02-17T02:12:14;100677.25;;;1.99;100.00
8941;BME280;4505;43.406;23.226;2023-02-17T02:14:41;100676.97;;;1.59;100.00
8941;BME280;4505;43.406;23.226;2023-02-17T02:17:10;100668.31;;;1.59;100.00
8941;BME280;4505;43.406;23.226;2023-02-17T02:19:46;100663.47;;;1.89;100.00
8941;BME280;4505;43.406;23.226;2023-02-17T02:22:26;100657.72;;;1.86;100.00
8941;BME280;4505;43.406;23.226;2023-02-17T02:25:02;100654.63;;;1.90;100.00
8941;BME280;4505;43.406;23.226;2023-02-17T02:33:08;100664.75;;;1.07;100.00
8941;BME280;4505;43.406;23.226;2023-02-17T02:35:41;100670.72;;;0.82;100.00
8941;BME280;4505;43.406;23.226;2023-02-17T02:38:12;100672.06;;;0.86;100.00
8941;BME280;4505;43.406;23.226;2023-02-17T02:40:41;100670.03;;;0.80;100.00
8941;BME280;4505;43.406;23.226;2023-02-17T02:43:08;100672.97;;;0.77;100.00
8941;BME280;4505;43.406;23.226;2023-02-17T02:45:35;100662.91;;;0.99;100.00
8941;BME280;4505;43.406;23.226;2023-02-17T02:48:01;100665.22;;;1.20;100.00
8941;BME280;4505;43.406;23.226;2023-02-17T02:50:32;100672.38;;;1.35;100.00
8941;BME280;4505;43.406;23.226;2023-02-17T02:53:06;100664.34;;;1.55;100.00
8941;BME280;4505;43.406;23.226;2023-02-17T02:55:42;100667.09;;;1.71;100.00
8941;BME280;4505;43.406;23.226;2023-02-17T02:58:16;100654.66;;;1.73;100.00
8941;BME280;4505;43.406;23.226;2023-02-17T03:00:45;100650.38;;;1.89;100.00
8941;BME280;4505;43.406;23.226;2023-02-17T03:03:19;100645.59;;;2.10;100.00
8941;BME280;4505;43.406;23.226;2023-02-17T03:05:53;100640.56;;;2.25;100.00
8941;BME280;4505;43.406;23.226;2023-02-17T03:08:24;100640.63;;;2.07;100.00
8941;BME280;4505;43.406;23.226;2023-02-17T03:10:53;100655.31;;;2.26;100.00
8941;BME280;4505;43.406;23.226;2023-02-17T03:13:20;100651.97;;;2.16;100.00
8941;BME280;4505;43.406;23.226;2023-02-17T03:15:47;100654.28;;;2.19;100.00
8941;BME280;4505;43.406;23.226;2023-02-17T03:18:14;100652.53;;;2.27;100.00
8941;BME280;4505;43.406;23.226;2023-02-17T03:20:42;100662.53;;;2.32;100.00
8941;BME280;4505;43.406;23.226;2023-02-17T03:23:11;100650.25;;;2.32;100.00
8941;BME280;4505;43.406;23.226;2023-02-17T03:25:38;100661.56;;;1.56;100.00
8941;BME280;4505;43.406;23.226;2023-02-17T03:28:04;100664.75;;;1.42;100.00
8941;BME280;4505;43.406;23.226;2023-02-17T03:30:31;100669.50;;;1.64;100.00
8941;BME280;4505;43.406;23.226;2023-02-17T03:32:58;100658.34;;;1.36;100.00
8941;BME280;4505;43.406;23.226;2023-02-17T03:35:24;100668.03;;;1.44;100.00
8941;BME280;4505;43.406;23.226;2023-02-17T03:37:51;100672.91;;;1.21;100.00
8941;BME280;4505;43.406;23.226;2023-02-17T03:40:19;100673.44;;;1.25;100.00
8941;BME280;4505;43.406;23.226;2023-02-17T03:42:45;100686.47;;;0.72;100.00
8941;BME280;4505;43.406;23.226;2023-02-17T03:45:12;100668.75;;;1.28;100.00
8941;BME280;4505;43.406;23.226;2023-02-17T03:47:38;100677.53;;;1.45;100.00
8941;BME280;4505;43.406;23.226;2023-02-17T03:50:05;100678.44;;;1.18;100.00
8941;BME280;4505;43.406;23.226;2023-02-17T03:52:32;100663.47;;;1.64;100.00
8941;BME280;4505;43.406;23.226;2023-02-17T03:54:59;100667.41;;;1.93;100.00
8941;BME280;4505;43.406;23.226;2023-02-17T03:57:27;100664.06;;;2.09;100.00
8941;BME280;4505;43.406;23.226;2023-02-17T03:59:56;100679.06;;;2.24;100.00
8941;BME280;4505;43.406;23.226;2023-02-17T04:02:22;100671.81;;;2.52;100.00
8941;BME280;4505;43.406;23.226;2023-02-17T04:04:49;100666.28;;;2.63;100.00
8941;BME280;4505;43.406;23.226;2023-02-17T04:07:16;100657.63;;;2.78;100.00
8941;BME280;4505;43.406;23.226;2023-02-17T04:09:42;100659.94;;;2.89;100.00
8941;BME280;4505;43.406;23.226;2023-02-17T04:12:09;100666.53;;;3.02;100.00
8941;BME280;4505;43.406;23.226;2023-02-17T04:14:37;100656.03;;;2.85;100.00
8941;BME280;4505;43.406;23.226;2023-02-17T04:17:03;100653.25;;;3.03;100.00
8941;BME280;4505;43.406;23.226;2023-02-17T04:19:30;100652.28;;;3.12;100.00
8941;BME280;4505;43.406;23.226;2023-02-17T04:21:56;100659.78;;;2.91;100.00
8941;BME280;4505;43.406;23.226;2023-02-17T04:24:23;100652.22;;;2.80;100.00
8941;BME280;4505;43.406;23.226;2023-02-17T04:26:49;100663.66;;;2.63;100.00
8941;BME280;4505;43.406;23.226;2023-02-17T04:29:16;100664.00;;;2.68;100.00
8941;BME280;4505;43.406;23.226;2023-02-17T04:31:44;100666.81;;;2.74;100.00
8941;BME280;4505;43.406;23.226;2023-02-17T04:34:11;100671.94;;;3.00;100.00
8941;BME280;4505;43.406;23.226;2023-02-17T04:36:37;100669.16;;;2.93;100.00
8941;BME280;4505;43.406;23.226;2023-02-17T04:39:04;100676.84;;;2.95;100.00
8941;BME280;4505;43.406;23.226;2023-02-17T04:41:30;100681.78;;;2.98;100.00
8941;BME280;4505;43.406;23.226;2023-02-17T04:43:57;100680.09;;;2.73;100.00
8941;BME280;4505;43.406;23.226;2023-02-17T04:46:24;100679.38;;;2.63;100.00
8941;BME280;4505;43.406;23.226;2023-02-17T04:48:52;100676.97;;;2.36;100.00
8941;BME280;4505;43.406;23.226;2023-02-17T04:51:19;100680.44;;;2.44;100.00
8941;BME280;4505;43.406;23.226;2023-02-17T04:53:45;100682.25;;;2.44;100.00
8941;BME280;4505;43.406;23.226;2023-02-17T04:56:12;100682.63;;;2.49;100.00
8941;BME280;4505;43.406;23.226;2023-02-17T04:58:39;100684.69;;;2.79;100.00
8941;BME280;4505;43.406;23.226;2023-02-17T05:01:05;100686.00;;;2.83;100.00
8941;BME280;4505;43.406;23.226;2023-02-17T05:03:32;100676.69;;;2.88;100.00
8941;BME280;4505;43.406;23.226;2023-02-17T05:06:00;100693.84;;;2.75;100.00
8941;BME280;4505;43.406;23.226;2023-02-17T05:08:27;100692.91;;;2.84;100.00
8941;BME280;4505;43.406;23.226;2023-02-17T05:10:53;100694.81;;;2.74;100.00
8941;BME280;4505;43.406;23.226;2023-02-17T05:13:20;100694.84;;;2.82;100.00
8941;BME280;4505;43.406;23.226;2023-02-17T05:15:47;100690.75;;;2.87;100.00
8941;BME280;4505;43.406;23.226;2023-02-17T05:18:13;100695.53;;;2.92;100.00
8941;BME280;4505;43.406;23.226;2023-02-17T05:20:40;100690.66;;;2.97;100.00
8941;BME280;4505;43.406;23.226;2023-02-17T05:23:08;100698.69;;;3.12;100.00
8941;BME280;4505;43.406;23.226;2023-02-17T05:25:34;100701.69;;;3.41;100.00
8941;BME280;4505;43.406;23.226;2023-02-17T05:28:01;100704.63;;;3.94;100.00
8941;BME280;4505;43.406;23.226;2023-02-17T05:30:28;100709.56;;;3.49;100.00
8941;BME280;4505;43.406;23.226;2023-02-17T05:32:54;100714.00;;;3.32;100.00
8941;BME280;4505;43.406;23.226;2023-02-17T05:35:21;100719.25;;;3.40;100.00
8941;BME280;4505;43.406;23.226;2023-02-17T05:37:51;100720.22;;;3.31;100.00
8941;BME280;4505;43.406;23.226;2023-02-17T05:40:23;100723.16;;;3.36;100.00
8941;BME280;4505;43.406;23.226;2023-02-17T05:42:50;100717.38;;;3.09;100.00
8941;BME280;4505;43.406;23.226;2023-02-17T05:45:17;100727.44;;;2.79;100.00
8941;BME280;4505;43.406;23.226;2023-02-17T05:47:43;100723.13;;;3.12;100.00
8941;BME280;4505;43.406;23.226;2023-02-17T05:50:10;100724.81;;;3.29;100.00
8941;BME280;4505;43.406;23.226;2023-02-17T05:52:37;100741.34;;;2.72;100.00
8941;BME280;4505;43.406;23.226;2023-02-17T05:55:04;100728.53;;;2.61;100.00
8941;BME280;4505;43.406;23.226;2023-02-17T05:57:33;100744.59;;;1.64;100.00
8941;BME280;4505;43.406;23.226;2023-02-17T06:00:00;100735.75;;;2.33;100.00
8941;BME280;4505;43.406;23.226;2023-02-17T06:02:26;100744.28;;;1.84;100.00
8941;BME280;4505;43.406;23.226;2023-02-17T06:04:53;100750.31;;;2.28;100.00
8941;BME280;4505;43.406;23.226;2023-02-17T06:07:19;100755.09;;;2.66;100.00
8941;BME280;4505;43.406;23.226;2023-02-17T06:09:46;100758.06;;;3.13;100.00
8941;BME280;4505;43.406;23.226;2023-02-17T06:12:13;100755.69;;;2.85;100.00
8941;BME280;4505;43.406;23.226;2023-02-17T06:14:41;100753.25;;;3.58;100.00
8941;BME280;4505;43.406;23.226;2023-02-17T06:17:07;100756.03;;;3.96;100.00
8941;BME280;4505;43.406;23.226;2023-02-17T06:19:34;100757.13;;;4.42;100.00
8941;BME280;4505;43.406;23.226;2023-02-17T06:22:00;100754.94;;;4.54;100.00
8941;BME280;4505;43.406;23.226;2023-02-17T06:24:27;100768.88;;;4.70;100.00
8941;BME280;4505;43.406;23.226;2023-02-17T06:26:54;100765.00;;;4.97;100.00
8941;BME280;4505;43.406;23.226;2023-02-17T06:29:20;100750.78;;;5.14;100.00
8941;BME280;4505;43.406;23.226;2023-02-17T06:31:48;100770.53;;;5.40;100.00
8941;BME280;4505;43.406;23.226;2023-02-17T06:34:15;100771.63;;;5.68;100.00
8941;BME280;4505;43.406;23.226;2023-02-17T06:36:41;100763.63;;;5.84;100.00
8941;BME280;4505;43.406;23.226;2023-02-17T06:39:08;100766.44;;;6.06;100.00
8941;BME280;4505;43.406;23.226;2023-02-17T06:41:34;100764.19;;;6.17;100.00
8941;BME280;4505;43.406;23.226;2023-02-17T06:44:01;100766.19;;;6.15;100.00
8941;BME280;4505;43.406;23.226;2023-02-17T06:46:28;100764.75;;;5.90;100.00
8941;BME280;4505;43.406;23.226;2023-02-17T06:48:56;100770.94;;;5.82;100.00
8941;BME280;4505;43.406;23.226;2023-02-17T06:51:24;100773.66;;;5.66;100.00
8941;BME280;4505;43.406;23.226;2023-02-17T06:53:50;100771.44;;;5.78;100.00
8941;BME280;4505;43.406;23.226;2023-02-17T06:56:17;100778.88;;;5.97;100.00
8941;BME280;4505;43.406;23.226;2023-02-17T06:58:44;100781.13;;;6.23;100.00
8941;BME280;4505;43.406;23.226;2023-02-17T07:01:14;100783.50;;;6.32;100.00
8941;BME280;4505;43.406;23.226;2023-02-17T07:03:41;100779.06;;;6.62;100.00
8941;BME280;4505;43.406;23.226;2023-02-17T07:06:08;100782.34;;;6.78;100.00
8941;BME280;4505;43.406;23.226;2023-02-17T07:08:35;100769.44;;;6.83;100.00
8941;BME280;4505;43.406;23.226;2023-02-17T07:11:03;100782.91;;;7.03;100.00
8941;BME280;4505;43.406;23.226;2023-02-17T07:13:30;100773.75;;;7.56;100.00
8941;BME280;4505;43.406;23.226;2023-02-17T07:15:56;100781.41;;;7.51;100.00
8941;BME280;4505;43.406;23.226;2023-02-17T07:18:23;100775.13;;;7.94;96.86
8941;BME280;4505;43.406;23.226;2023-02-17T07:20:49;100776.78;;;8.22;93.18
8941;BME280;4505;43.406;23.226;2023-02-17T07:23:17;100780.63;;;8.41;94.08
8941;BME280;4505;43.406;23.226;2023-02-17T07:25:44;100776.78;;;8.43;94.76
8941;BME280;4505;43.406;23.226;2023-02-17T07:28:10;100774.50;;;8.40;92.06
8941;BME280;4505;43.406;23.226;2023-02-17T07:30:37;100779.00;;;8.74;81.46
8941;BME280;4505;43.406;23.226;2023-02-17T07:33:04;100785.53;;;9.19;78.39
8941;BME280;4505;43.406;23.226;2023-02-17T07:35:31;100775.50;;;9.68;75.64
8941;BME280;4505;43.406;23.226;2023-02-17T07:37:57;100784.47;;;9.73;69.45
8941;BME280;4505;43.406;23.226;2023-02-17T07:40:26;100773.47;;;9.76;72.72
8941;BME280;4505;43.406;23.226;2023-02-17T07:42:53;100778.44;;;10.38;69.13
8941;BME280;4505;43.406;23.226;2023-02-17T07:45:19;100773.88;;;10.65;62.06
8941;BME280;4505;43.406;23.226;2023-02-17T07:47:46;100761.47;;;12.40;45.03
8941;BME280;4505;43.406;23.226;2023-02-17T07:50:15;100778.41;;;13.54;40.79
8941;BME280;4505;43.406;23.226;2023-02-17T07:52:42;100770.34;;;14.83;35.85
8941;BME280;4505;43.406;23.226;2023-02-17T07:55:08;100777.53;;;14.94;35.71
8941;BME280;4505;43.406;23.226;2023-02-17T07:57:36;100817.00;;;15.38;32.94
8941;BME280;4505;43.406;23.226;2023-02-17T08:00:05;100785.81;;;15.71;32.15
8941;BME280;4505;43.406;23.226;2023-02-17T08:02:33;100794.94;;;15.87;31.54
8941;BME280;4505;43.406;23.226;2023-02-17T08:05:01;100791.50;;;15.75;31.53
8941;BME280;4505;43.406;23.226;2023-02-17T08:07:28;100788.50;;;15.88;31.51
8941;BME280;4505;43.406;23.226;2023-02-17T08:09:57;100802.34;;;15.97;31.44
8941;BME280;4505;43.406;23.226;2023-02-17T08:12:53;100839.84;;;15.68;31.43
8941;BME280;4505;43.406;23.226;2023-02-17T08:15:37;100800.44;;;15.81;31.44
8941;BME280;4505;43.406;23.226;2023-02-17T08:18:05;100795.38;;;15.67;30.81
8941;BME280;4505;43.406;23.226;2023-02-17T08:20:32;100825.66;;;15.68;30.86
8941;BME280;4505;43.406;23.226;2023-02-17T08:22:59;100805.44;;;15.77;30.54
8941;BME280;4505;43.406;23.226;2023-02-17T08:25:29;100801.44;;;15.91;30.88
8941;BME280;4505;43.406;23.226;2023-02-17T08:27:59;100805.88;;;15.86;30.65
8941;BME280;4505;43.406;23.226;2023-02-17T08:30:25;100802.81;;;15.94;30.52
8941;BME280;4505;43.406;23.226;2023-02-17T08:32:52;100805.81;;;15.97;30.65
8941;BME280;4505;43.406;23.226;2023-02-17T08:35:19;100813.28;;;15.95;30.61
8941;BME280;4505;43.406;23.226;2023-02-17T08:37:46;100827.22;;;15.81;30.50
8941;BME280;4505;43.406;23.226;2023-02-17T08:40:13;100827.91;;;15.88;31.00
8941;BME280;4505;43.406;23.226;2023-02-17T08:42:40;100841.66;;;15.80;31.00
8941;BME280;4505;43.406;23.226;2023-02-17T08:45:09;100843.66;;;16.01;30.78
8941;BME280;4505;43.406;23.226;2023-02-17T08:47:37;100818.41;;;15.97;30.29
8941;BME280;4505;43.406;23.226;2023-02-17T08:50:05;100841.25;;;15.99;29.91
8941;BME280;4505;43.406;23.226;2023-02-17T08:52:32;100838.59;;;15.88;30.13
8941;BME280;4505;43.406;23.226;2023-02-17T08:54:59;100865.84;;;16.13;30.12
8941;BME280;4505;43.406;23.226;2023-02-17T08:57:26;100826.31;;;15.75;30.45
8941;BME280;4505;43.406;23.226;2023-02-17T08:59:53;100836.22;;;15.74;30.90
8941;BME280;4505;43.406;23.226;2023-02-17T09:02:21;100832.13;;;15.72;30.44
8941;BME280;4505;43.406;23.226;2023-02-17T09:04:48;100826.00;;;15.71;30.78
8941;BME280;4505;43.406;23.226;2023-02-17T09:07:14;100820.34;;;15.85;31.36
8941;BME280;4505;43.406;23.226;2023-02-17T09:09:41;100829.28;;;15.90;31.74
8941;BME280;4505;43.406;23.226;2023-02-17T09:12:08;100841.25;;;16.16;30.48
8941;BME280;4505;43.406;23.226;2023-02-17T09:14:35;100835.41;;;16.19;30.30
8941;BME280;4505;43.406;23.226;2023-02-17T09:17:01;100815.84;;;16.18;30.05
8941;BME280;4505;43.406;23.226;2023-02-17T09:19:30;100820.97;;;16.20;30.45
8941;BME280;4505;43.406;23.226;2023-02-17T09:21:56;100827.75;;;16.11;30.59
8941;BME280;4505;43.406;23.226;2023-02-17T09:24:23;100829.84;;;16.53;30.20
8941;BME280;4505;43.406;23.226;2023-02-17T09:26:50;100844.25;;;16.19;30.70
8941;BME280;4505;43.406;23.226;2023-02-17T09:29:17;100831.84;;;16.30;30.75
8941;BME280;4505;43.406;23.226;2023-02-17T09:31:43;100837.22;;;16.30;30.38
8941;BME280;4505;43.406;23.226;2023-02-17T09:34:10;100839.09;;;16.01;30.58
8941;BME280;4505;43.406;23.226;2023-02-17T09:36:40;100838.34;;;16.34;31.20
8941;BME280;4505;43.406;23.226;2023-02-17T09:39:07;100809.66;;;16.67;30.76
8941;BME280;4505;43.406;23.226;2023-02-17T09:41:36;100827.38;;;16.68;30.78
8941;BME280;4505;43.406;23.226;2023-02-17T09:44:04;100813.47;;;17.31;30.21
8941;BME280;4505;43.406;23.226;2023-02-17T09:46:34;100824.06;;;16.61;30.60
8941;BME280;4505;43.406;23.226;2023-02-17T09:49:02;100821.56;;;16.55;31.02
8941;BME280;4505;43.406;23.226;2023-02-17T09:51:32;100834.44;;;16.41;30.90
8941;BME280;4505;43.406;23.226;2023-02-17T09:54:03;100822.91;;;16.57;31.01
8941;BME280;4505;43.406;23.226;2023-02-17T09:56:33;100820.81;;;16.76;31.09
8941;BME280;4505;43.406;23.226;2023-02-17T09:59:01;100826.31;;;16.86;30.57
8941;BME280;4505;43.406;23.226;2023-02-17T10:01:32;100819.75;;;16.44;30.81
8941;BME280;4505;43.406;23.226;2023-02-17T10:04:00;100814.25;;;17.05;30.29
8941;BME280;4505;43.406;23.226;2023-02-17T10:06:28;100814.53;;;16.87;30.38
8941;BME280;4505;43.406;23.226;2023-02-17T10:08:58;100831.69;;;16.69;30.59
8941;BME280;4505;43.406;23.226;2023-02-17T10:11:29;100820.94;;;16.36;31.17
8941;BME280;4505;43.406;23.226;2023-02-17T10:13:57;100817.72;;;16.51;31.39
8941;BME280;4505;43.406;23.226;2023-02-17T10:16:30;100813.19;;;16.68;30.98
8941;BME280;4505;43.406;23.226;2023-02-17T10:19:01;100805.53;;;16.43;31.03
8941;BME280;4505;43.406;23.226;2023-02-17T10:21:32;100808.94;;;16.72;31.04
8941;BME280;4505;43.406;23.226;2023-02-17T10:24:01;100808.00;;;16.45;31.51
8941;BME280;4505;43.406;23.226;2023-02-17T10:26:34;100815.28;;;16.49;31.37
8941;BME280;4505;43.406;23.226;2023-02-17T10:29:11;100813.34;;;16.45;30.88
8941;BME280;4505;43.406;23.226;2023-02-17T10:31:42;100808.38;;;16.37;31.57
8941;BME280;4505;43.406;23.226;2023-02-17T10:34:11;100815.16;;;16.94;31.32
8941;BME280;4505;43.406;23.226;2023-02-17T10:36:42;100783.91;;;16.33;31.71
8941;BME280;4505;43.406;23.226;2023-02-17T10:39:21;100784.25;;;16.37;31.87
8941;BME280;4505;43.406;23.226;2023-02-17T10:41:55;100770.75;;;16.65;31.96
8941;BME280;4505;43.406;23.226;2023-02-17T10:44:22;100778.88;;;16.70;32.05
8941;BME280;4505;43.406;23.226;2023-02-17T10:46:50;100766.59;;;16.74;30.97
8941;BME280;4505;43.406;23.226;2023-02-17T10:49:21;100768.22;;;16.96;30.58
8941;BME280;4505;43.406;23.226;2023-02-17T10:51:51;100772.16;;;16.89;30.77
8941;BME280;4505;43.406;23.226;2023-02-17T10:54:21;100758.09;;;16.82;31.13
8941;BME280;4505;43.406;23.226;2023-02-17T10:56:53;100763.53;;;16.87;30.91
8941;BME280;4505;43.406;23.226;2023-02-17T10:59:23;100771.06;;;16.68;31.29
8941;BME280;4505;43.406;23.226;2023-02-17T11:01:52;100793.66;;;16.56;31.26
8941;BME280;4505;43.406;23.226;2023-02-17T11:04:21;100758.31;;;16.59;30.93
8941;BME280;4505;43.406;23.226;2023-02-17T11:06:49;100743.97;;;16.48;31.32
8941;BME280;4505;43.406;23.226;2023-02-17T11:09:17;100746.75;;;16.75;31.12
8941;BME280;4505;43.406;23.226;2023-02-17T11:11:48;100749.94;;;16.93;30.80
8941;BME280;4505;43.406;23.226;2023-02-17T11:14:17;100755.25;;;17.10;31.37
8941;BME280;4505;43.406;23.226;2023-02-17T11:16:46;100744.03;;;17.13;31.59
8941;BME280;4505;43.406;23.226;2023-02-17T11:19:20;100744.81;;;17.35;31.62
8941;BME280;4505;43.406;23.226;2023-02-17T11:21:48;100737.13;;;17.00;32.35
8941;BME280;4505;43.406;23.226;2023-02-17T11:24:16;100729.16;;;17.05;31.67
8941;BME280;4505;43.406;23.226;2023-02-17T11:26:42;100733.09;;;16.98;32.05
8941;BME280;4505;43.406;23.226;2023-02-17T11:29:09;100729.47;;;17.09;32.20
8941;BME280;4505;43.406;23.226;2023-02-17T11:31:40;100725.97;;;17.57;31.09
8941;BME280;4505;43.406;23.226;2023-02-17T11:34:12;100733.50;;;17.33;31.09
8941;BME280;4505;43.406;23.226;2023-02-17T11:36:39;100726.63;;;17.42;31.47
8941;BME280;4505;43.406;23.226;2023-02-17T11:39:16;100727.22;;;17.71;31.42
8941;BME280;4505;43.406;23.226;2023-02-17T11:41:43;100725.34;;;17.45;30.77
8941;BME280;4505;43.406;23.226;2023-02-17T11:44:10;100717.63;;;17.05;31.06
8941;BME280;4505;43.406;23.226;2023-02-17T11:46:39;100716.53;;;17.28;31.50
8941;BME280;4505;43.406;23.226;2023-02-17T11:49:28;100713.16;;;17.37;31.65
8941;BME280;4505;43.406;23.226;2023-02-17T11:52:00;100706.59;;;17.28;31.20
8941;BME280;4505;43.406;23.226;2023-02-17T11:54:30;100701.31;;;17.60;31.19
8941;BME280;4505;43.406;23.226;2023-02-17T11:56:59;100713.09;;;17.10;31.05
8941;BME280;4505;43.406;23.226;2023-02-17T11:59:31;100691.72;;;17.42;31.18
8941;BME280;4505;43.406;23.226;2023-02-17T12:02:05;100690.03;;;17.94;29.87
8941;BME280;4505;43.406;23.226;2023-02-17T12:04:38;100688.94;;;17.59;29.89
8941;BME280;4505;43.406;23.226;2023-02-17T12:07:21;100688.75;;;17.17;29.63
8941;BME280;4505;43.406;23.226;2023-02-17T12:09:54;100692.91;;;17.30;29.40
8941;BME280;4505;43.406;23.226;2023-02-17T12:12:31;100678.09;;;17.49;29.75
8941;BME280;4505;43.406;23.226;2023-02-17T12:15:05;100683.78;;;17.52;30.07
8941;BME280;4505;43.406;23.226;2023-02-17T12:17:35;100688.47;;;17.67;29.64
8941;BME280;4505;43.406;23.226;2023-02-17T12:20:06;100677.41;;;17.58;28.33
8941;BME280;4505;43.406;23.226;2023-02-17T12:22:41;100684.34;;;17.54;28.35
8941;BME280;4505;43.406;23.226;2023-02-17T12:25:17;100671.38;;;17.78;28.54
8941;BME280;4505;43.406;23.226;2023-02-17T12:27:50;100669.38;;;17.63;27.53
8941;BME280;4505;43.406;23.226;2023-02-17T12:30:22;100666.56;;;17.48;28.37
8941;BME280;4505;43.406;23.226;2023-02-17T12:32:59;100665.81;;;17.89;28.47
8941;BME280;4505;43.406;23.226;2023-02-17T12:35:32;100661.75;;;17.50;28.52
8941;BME280;4505;43.406;23.226;2023-02-17T12:38:03;100656.50;;;17.65;28.59
8941;BME280;4505;43.406;23.226;2023-02-17T12:40:35;100652.06;;;17.49;28.87
8941;BME280;4505;43.406;23.226;2023-02-17T12:43:05;100652.31;;;17.48;29.10
8941;BME280;4505;43.406;23.226;2023-02-17T12:45:35;100662.69;;;17.66;28.98
8941;BME280;4505;43.406;23.226;2023-02-17T12:48:03;100638.31;;;17.72;29.14
8941;BME280;4505;43.406;23.226;2023-02-17T12:50:32;100635.56;;;18.04;28.99
8941;BME280;4505;43.406;23.226;2023-02-17T12:53:01;100671.13;;;17.48;28.87
8941;BME280;4505;43.406;23.226;2023-02-17T12:55:29;100651.25;;;17.49;29.05
8941;BME280;4505;43.406;23.226;2023-02-17T12:58:00;100639.69;;;17.80;28.80
8941;BME280;4505;43.406;23.226;2023-02-17T13:00:31;100665.31;;;17.61;28.79
8941;BME280;4505;43.406;23.226;2023-02-17T13:03:00;100651.81;;;17.51;28.78
8941;BME280;4505;43.406;23.226;2023-02-17T13:05:29;100658.75;;;17.47;28.80
8941;BME280;4505;43.406;23.226;2023-02-17T13:07:59;100658.06;;;17.35;28.38
8941;BME280;4505;43.406;23.226;2023-02-17T13:10:31;100655.16;;;17.63;28.11
8941;BME280;4505;43.406;23.226;2023-02-17T13:12:59;100663.25;;;17.68;28.31
8941;BME280;4505;43.406;23.226;2023-02-17T13:15:28;100651.22;;;18.17;27.99